sensor_id;sensor_type;location;lat;lon;timestamp;pressure;altitude;pressure_sealevel;temperature;humidity
70546;BME280;58098;51.680;5.134;2023-07-31T00:00:05;101109.91;;;15.84;100.00
70546;BME280;58098;51.680;5.134;2023-07-31T00:02:31;101111.31;;;15.78;100.00
70546;BME280;58098;51.680;5.134;2023-07-31T00:04:56;101098.59;;;15.74;100.00
70546;BME280;58098;51.680;5.134;2023-07-31T00:07:22;101099.28;;;15.76;100.00
70546;BME280;58098;51.680;5.134;2023-07-31T00:09:47;101098.88;;;15.71;100.00
70546;BME280;58098;51.680;5.134;2023-07-31T00:12:13;101088.38;;;15.71;100.00
70546;BME280;58098;51.680;5.134;2023-07-31T00:14:38;101106.50;;;15.74;100.00
70546;BME280;58098;51.680;5.134;2023-07-31T00:17:04;101097.78;;;15.73;100.00
70546;BME280;58098;51.680;5.134;2023-07-31T00:19:29;101088.53;;;15.69;100.00
70546;BME280;58098;51.680;5.134;2023-07-31T00:21:54;101087.41;;;15.72;100.00
70546;BME280;58098;51.680;5.134;2023-07-31T00:24:20;101084.44;;;15.75;100.00
70546;BME280;58098;51.680;5.134;2023-07-31T00:26:45;101084.78;;;15.72;100.00
70546;BME280;58098;51.680;5.134;2023-07-31T00:29:10;101076.16;;;15.70;100.00
70546;BME280;58098;51.680;5.134;2023-07-31T00:31:36;101084.78;;;15.72;100.00
70546;BME280;58098;51.680;5.134;2023-07-31T00:34:01;101087.75;;;15.77;100.00
70546;BME280;58098;51.680;5.134;2023-07-31T00:36:26;101093.63;;;15.71;100.00
70546;BME280;58098;51.680;5.134;2023-07-31T00:38:52;101090.16;;;15.70;100.00
70546;BME280;58098;51.680;5.134;2023-07-31T00:41:17;101074.00;;;15.65;100.00
70546;BME280;58098;51.680;5.134;2023-07-31T00:43:42;101084.38;;;15.67;100.00
70546;BME280;58098;51.680;5.134;2023-07-31T00:46:08;101077.75;;;15.63;100.00
70546;BME280;58098;51.680;5.134;2023-07-31T00:48:34;101077.47;;;15.66;100.00
70546;BME280;58098;51.680;5.134;2023-07-31T00:51:00;101067.66;;;15.58;100.00
70546;BME280;58098;51.680;5.134;2023-07-31T00:53:27;101081.22;;;15.63;100.00
70546;BME280;58098;51.680;5.134;2023-07-31T00:55:53;101066.53;;;15.61;100.00
70546;BME280;58098;51.680;5.134;2023-07-31T00:58:18;101054.00;;;15.55;100.00
70546;BME280;58098;51.680;5.134;2023-07-31T01:00:43;101073.47;;;15.62;100.00
70546;BME280;58098;51.680;5.134;2023-07-31T01:03:09;101072.63;;;15.61;100.00
70546;BME280;58098;51.680;5.134;2023-07-31T01:05:56;101070.16;;;15.60;100.00
70546;BME280;58098;51.680;5.134;2023-07-31T01:08:51;101075.44;;;15.60;100.00
70546;BME280;58098;51.680;5.134;2023-07-31T01:11:25;101072.09;;;15.58;100.00
70546;BME280;58098;51.680;5.134;2023-07-31T01:13:53;101077.06;;;15.61;100.00
70546;BME280;58098;51.680;5.134;2023-07-31T01:16:19;101068.78;;;15.56;100.00
70546;BME280;58098;51.680;5.134;2023-07-31T01:18:44;101072.94;;;15.58;100.00
70546;BME280;58098;51.680;5.134;2023-07-31T01:21:29;101068.78;;;15.56;100.00
70546;BME280;58098;51.680;5.134;2023-07-31T01:24:19;101072.63;;;15.61;100.00
70546;BME280;58098;51.680;5.134;2023-07-31T01:26:53;101064.53;;;15.55;100.00
70546;BME280;58098;51.680;5.134;2023-07-31T01:29:26;101072.09;;;15.58;100.00
70546;BME280;58098;51.680;5.134;2023-07-31T01:31:56;101070.53;;;15.65;100.00
70546;BME280;58098;51.680;5.134;2023-07-31T01:34:23;101062.03;;;15.53;100.00
70546;BME280;58098;51.680;5.134;2023-07-31T01:36:49;101061.88;;;15.55;100.00
70546;BME280;58098;51.680;5.134;2023-07-31T01:39:14;101081.66;;;15.59;100.00
70546;BME280;58098;51.680;5.134;2023-07-31T01:41:40;101059.25;;;15.55;100.00
70546;BME280;58098;51.680;5.134;2023-07-31T01:44:06;101065.88;;;15.59;100.00
70546;BME280;58098;51.680;5.134;2023-07-31T01:46:31;101064.19;;;15.58;100.00
70546;BME280;58098;51.680;5.134;2023-07-31T01:48:57;101064.34;;;15.56;100.00
70546;BME280;58098;51.680;5.134;2023-07-31T01:51:22;101064.06;;;15.59;100.00
70546;BME280;58098;51.680;5.134;2023-07-31T01:53:47;101055.63;;;15.56;100.00
70546;BME280;58098;51.680;5.134;2023-07-31T01:56:13;101054.50;;;15.58;100.00
70546;BME280;58098;51.680;5.134;2023-07-31T01:58:38;101039.47;;;15.51;100.00
70546;BME280;58098;51.680;5.134;2023-07-31T02:01:04;101047.22;;;15.52;100.00
70546;BME280;58098;51.680;5.134;2023-07-31T02:03:29;101036.16;;;15.49;100.00
70546;BME280;58098;51.680;5.134;2023-07-31T02:05:55;101042.78;;;15.53;100.00
70546;BME280;58098;51.680;5.134;2023-07-31T02:08:20;101022.88;;;15.41;100.00
70546;BME280;58098;51.680;5.134;2023-07-31T02:10:45;101027.00;;;15.43;100.00
70546;BME280;58098;51.680;5.134;2023-07-31T02:13:11;101033.25;;;15.52;100.00
70546;BME280;58098;51.680;5.134;2023-07-31T02:15:36;101027.75;;;15.45;100.00
70546;BME280;58098;51.680;5.134;2023-07-31T02:18:02;101027.59;;;15.47;100.00
70546;BME280;58098;51.680;5.134;2023-07-31T02:20:27;101007.94;;;15.41;100.00
70546;BME280;58098;51.680;5.134;2023-07-31T02:22:53;101015.97;;;15.40;100.00
70546;BME280;58098;51.680;5.134;2023-07-31T02:25:18;101019.88;;;15.36;100.00
70546;BME280;58098;51.680;5.134;2023-07-31T02:27:43;101026.78;;;15.37;100.00
70546;BME280;58098;51.680;5.134;2023-07-31T02:30:09;101024.56;;;15.42;100.00
70546;BME280;58098;51.680;5.134;2023-07-31T02:32:34;101013.63;;;15.37;100.00
70546;BME280;58098;51.680;5.134;2023-07-31T02:35:00;101015.16;;;15.39;100.00
70546;BME280;58098;51.680;5.134;2023-07-31T02:37:26;101019.56;;;15.39;100.00
70546;BME280;58098;51.680;5.134;2023-07-31T02:39:51;101019.19;;;15.34;100.00
70546;BME280;58098;51.680;5.134;2023-07-31T02:42:16;101010.63;;;15.32;100.00
70546;BME280;58098;51.680;5.134;2023-07-31T02:44:42;101014.59;;;15.36;100.00
70546;BME280;58098;51.680;5.134;2023-07-31T02:47:07;101021.31;;;15.30;100.00
70546;BME280;58098;51.680;5.134;2023-07-31T02:49:32;101017.69;;;15.31;100.00
70546;BME280;58098;51.680;5.134;2023-07-31T02:51:58;101016.88;;;15.31;100.00
70546;BME280;58098;51.680;5.134;2023-07-31T02:54:23;101006.94;;;15.25;100.00
70546;BME280;58098;51.680;5.134;2023-07-31T02:56:48;101006.09;;;15.24;100.00
70546;BME280;58098;51.680;5.134;2023-07-31T02:59:14;101006.09;;;15.24;100.00
70546;BME280;58098;51.680;5.134;2023-07-31T03:01:39;101010.69;;;15.22;100.00
70546;BME280;58098;51.680;5.134;2023-07-31T03:04:05;100998.81;;;15.18;100.00
70546;BME280;58098;51.680;5.134;2023-07-31T03:06:30;100996.88;;;15.20;100.00
70546;BME280;58098;51.680;5.134;2023-07-31T03:08:55;100995.34;;;15.17;100.00
70546;BME280;58098;51.680;5.134;2023-07-31T03:11:21;101003.34;;;15.26;100.00
70546;BME280;58098;51.680;5.134;2023-07-31T03:13:46;100999.31;;;15.21;100.00
70546;BME280;58098;51.680;5.134;2023-07-31T03:16:12;100992.16;;;15.14;100.00
70546;BME280;58098;51.680;5.134;2023-07-31T03:18:37;101004.59;;;15.21;100.00
70546;BME280;58098;51.680;5.134;2023-07-31T03:21:02;100999.50;;;15.20;100.00
70546;BME280;58098;51.680;5.134;2023-07-31T03:23:28;100999.50;;;15.20;100.00
70546;BME280;58098;51.680;5.134;2023-07-31T03:28:22;100987.97;;;15.21;100.00
70546;BME280;58098;51.680;5.134;2023-07-31T03:30:47;100978.75;;;15.17;100.00
70546;BME280;58098;51.680;5.134;2023-07-31T03:33:13;100982.88;;;15.19;100.00
70546;BME280;58098;51.680;5.134;2023-07-31T03:35:38;100983.72;;;15.20;100.00
70546;BME280;58098;51.680;5.134;2023-07-31T03:38:03;100978.00;;;15.25;100.00
70546;BME280;58098;51.680;5.134;2023-07-31T03:40:28;100960.88;;;15.20;100.00
70546;BME280;58098;51.680;5.134;2023-07-31T03:42:54;100972.97;;;15.31;100.00
70546;BME280;58098;51.680;5.134;2023-07-31T03:45:19;100962.63;;;15.30;100.00
70546;BME280;58098;51.680;5.134;2023-07-31T03:47:44;100968.25;;;15.35;100.00
70546;BME280;58098;51.680;5.134;2023-07-31T03:50:10;100958.41;;;15.37;100.00
70546;BME280;58098;51.680;5.134;2023-07-31T03:52:35;100958.13;;;15.40;100.00
70546;BME280;58098;51.680;5.134;2023-07-31T03:55:01;100965.56;;;15.44;100.00
70546;BME280;58098;51.680;5.134;2023-07-31T03:57:26;100968.06;;;15.46;100.00
70546;BME280;58098;51.680;5.134;2023-07-31T03:59:52;100950.53;;;15.37;100.00
70546;BME280;58098;51.680;5.134;2023-07-31T04:02:17;100962.50;;;15.49;100.00
70546;BME280;58098;51.680;5.134;2023-07-31T04:04:43;100947.59;;;15.40;100.00
70546;BME280;58098;51.680;5.134;2023-07-31T04:07:09;100940.97;;;15.45;100.00
70546;BME280;58098;51.680;5.134;2023-07-31T04:09:34;100953.66;;;15.50;100.00
70546;BME280;58098;51.680;5.134;2023-07-31T04:11:59;100941.19;;;15.52;100.00
70546;BME280;58098;51.680;5.134;2023-07-31T04:14:25;100951.09;;;15.58;100.00
70546;BME280;58098;51.680;5.134;2023-07-31T04:16:50;100932.09;;;15.46;100.00
70546;BME280;58098;51.680;5.134;2023-07-31T04:19:15;100957.72;;;15.62;100.00
70546;BME280;58098;51.680;5.134;2023-07-31T04:21:42;100941.69;;;15.55;100.00
70546;BME280;58098;51.680;5.134;2023-07-31T04:24:07;100956.34;;;15.58;100.00
70546;BME280;58098;51.680;5.134;2023-07-31T04:26:32;100938.94;;;15.57;100.00
70546;BME280;58098;51.680;5.134;2023-07-31T04:28:58;100935.25;;;15.50;100.00
70546;BME280;58098;51.680;5.134;2023-07-31T04:31:23;100942.53;;;15.56;100.00
70546;BME280;58098;51.680;5.134;2023-07-31T04:33:48;100938.56;;;15.52;100.00
70546;BME280;58098;51.680;5.134;2023-07-31T04:36:14;100941.84;;;15.54;100.00
70546;BME280;58098;51.680;5.134;2023-07-31T04:38:39;100938.75;;;15.58;100.00
70546;BME280;58098;51.680;5.134;2023-07-31T04:41:06;100933.00;;;15.55;100.00
70546;BME280;58098;51.680;5.134;2023-07-31T04:43:31;100936.75;;;15.52;100.00
70546;BME280;58098;51.680;5.134;2023-07-31T04:45:57;100927.38;;;15.50;100.00
70546;BME280;58098;51.680;5.134;2023-07-31T04:48:23;100933.28;;;15.52;100.00
70546;BME280;58098;51.680;5.134;2023-07-31T04:50:48;100921.81;;;15.43;100.00
70546;BME280;58098;51.680;5.134;2023-07-31T04:53:14;100911.09;;;15.37;100.00
70546;BME280;58098;51.680;5.134;2023-07-31T04:55:39;100915.28;;;15.30;100.00
70546;BME280;58098;51.680;5.134;2023-07-31T04:58:05;100922.56;;;15.36;100.00
70546;BME280;58098;51.680;5.134;2023-07-31T05:00:30;100919.94;;;15.36;100.00
70546;BME280;58098;51.680;5.134;2023-07-31T05:02:55;100906.72;;;15.28;100.00
70546;BME280;58098;51.680;5.134;2023-07-31T05:05:21;100897.84;;;15.29;100.00
70546;BME280;58098;51.680;5.134;2023-07-31T05:07:46;100909.75;;;15.33;100.00
70546;BME280;58098;51.680;5.134;2023-07-31T05:10:12;100900.63;;;15.27;100.00
70546;BME280;58098;51.680;5.134;2023-07-31T05:12:37;100898.19;;;15.26;100.00
70546;BME280;58098;51.680;5.134;2023-07-31T05:15:03;100899.81;;;15.27;100.00
70546;BME280;58098;51.680;5.134;2023-07-31T05:17:28;100901.47;;;15.28;100.00
70546;BME280;58098;51.680;5.134;2023-07-31T05:19:54;100899.50;;;15.30;100.00
70546;BME280;58098;51.680;5.134;2023-07-31T05:22:19;100884.31;;;15.23;100.00
70546;BME280;58098;51.680;5.134;2023-07-31T05:24:44;100887.34;;;15.29;100.00
70546;BME280;58098;51.680;5.134;2023-07-31T05:27:10;100890.97;;;15.28;100.00
70546;BME280;58098;51.680;5.134;2023-07-31T05:29:35;100896.28;;;15.36;100.00
70546;BME280;58098;51.680;5.134;2023-07-31T05:32:01;100882.44;;;15.34;100.00
70546;BME280;58098;51.680;5.134;2023-07-31T05:34:26;100887.13;;;15.40;100.00
70546;BME280;58098;51.680;5.134;2023-07-31T05:36:52;100879.25;;;15.40;100.00
70546;BME280;58098;51.680;5.134;2023-07-31T05:39:18;100871.25;;;15.32;100.00
70546;BME280;58098;51.680;5.134;2023-07-31T05:41:44;100879.25;;;15.40;100.00
70546;BME280;58098;51.680;5.134;2023-07-31T05:44:10;100863.09;;;15.35;100.00
70546;BME280;58098;51.680;5.134;2023-07-31T05:46:35;100868.34;;;15.35;100.00
70546;BME280;58098;51.680;5.134;2023-07-31T05:49:00;100863.91;;;15.35;100.00
70546;BME280;58098;51.680;5.134;2023-07-31T05:51:26;100864.78;;;15.44;100.00
70546;BME280;58098;51.680;5.134;2023-07-31T05:53:52;100858.88;;;15.42;100.00
70546;BME280;58098;51.680;5.134;2023-07-31T05:56:18;100859.84;;;15.41;100.00
70546;BME280;58098;51.680;5.134;2023-07-31T05:58:43;100856.06;;;15.43;100.00
70546;BME280;58098;51.680;5.134;2023-07-31T06:01:08;100863.41;;;15.49;100.00
70546;BME280;58098;51.680;5.134;2023-07-31T06:03:34;100853.34;;;15.45;100.00
70546;BME280;58098;51.680;5.134;2023-07-31T06:05:59;100871.13;;;15.51;100.00
70546;BME280;58098;51.680;5.134;2023-07-31T06:08:25;100853.19;;;15.46;100.00
70546;BME280;58098;51.680;5.134;2023-07-31T06:10:50;100859.66;;;15.52;100.00
70546;BME280;58098;51.680;5.134;2023-07-31T06:13:15;100844.31;;;15.47;100.00
70546;BME280;58098;51.680;5.134;2023-07-31T06:15:41;100848.97;;;15.53;100.00
70546;BME280;58098;51.680;5.134;2023-07-31T06:18:06;100846.88;;;15.57;100.00
70546;BME280;58098;51.680;5.134;2023-07-31T06:20:34;100839.94;;;15.56;100.00
70546;BME280;58098;51.680;5.134;2023-07-31T06:22:59;100832.03;;;15.56;100.00
70546;BME280;58098;51.680;5.134;2023-07-31T06:25:25;100837.97;;;15.58;100.00
70546;BME280;58098;51.680;5.134;2023-07-31T06:27:50;100843.47;;;15.64;100.00
70546;BME280;58098;51.680;5.134;2023-07-31T06:30:16;100842.34;;;15.67;100.00
70546;BME280;58098;51.680;5.134;2023-07-31T06:32:41;100819.25;;;15.61;100.00
70546;BME280;58098;51.680;5.134;2023-07-31T06:35:08;100811.53;;;15.59;100.00
70546;BME280;58098;51.680;5.134;2023-07-31T06:37:33;100825.78;;;15.74;100.00
70546;BME280;58098;51.680;5.134;2023-07-31T06:39:58;100807.19;;;15.76;100.00
70546;BME280;58098;51.680;5.134;2023-07-31T06:42:24;100810.25;;;15.89;100.00
70546;BME280;58098;51.680;5.134;2023-07-31T06:44:49;100801.53;;;15.89;100.00
70546;BME280;58098;51.680;5.134;2023-07-31T06:47:15;100794.59;;;15.88;100.00
70546;BME280;58098;51.680;5.134;2023-07-31T06:49:40;100797.22;;;15.88;100.00
70546;BME280;58098;51.680;5.134;2023-07-31T06:52:05;100772.34;;;15.74;100.00
70546;BME280;58098;51.680;5.134;2023-07-31T06:54:31;100797.59;;;15.93;100.00
70546;BME280;58098;51.680;5.134;2023-07-31T06:56:57;100793.47;;;15.90;100.00
70546;BME280;58098;51.680;5.134;2023-07-31T06:59:22;100786.91;;;15.94;100.00
70546;BME280;58098;51.680;5.134;2023-07-31T07:01:47;100792.03;;;15.96;100.00
70546;BME280;58098;51.680;5.134;2023-07-31T07:04:14;100790.06;;;15.98;100.00
70546;BME280;58098;51.680;5.134;2023-07-31T07:06:39;100786.63;;;16.05;100.00
70546;BME280;58098;51.680;5.134;2023-07-31T07:09:04;100794.88;;;16.10;100.00
70546;BME280;58098;51.680;5.134;2023-07-31T07:11:30;100789.09;;;16.07;100.00
70546;BME280;58098;51.680;5.134;2023-07-31T07:13:56;100783.84;;;16.07;100.00
70546;BME280;58098;51.680;5.134;2023-07-31T07:16:21;100794.06;;;16.10;100.00
70546;BME280;58098;51.680;5.134;2023-07-31T07:18:46;100776.47;;;16.10;100.00
70546;BME280;58098;51.680;5.134;2023-07-31T07:21:12;100793.44;;;16.16;100.00
70546;BME280;58098;51.680;5.134;2023-07-31T07:23:41;100787.34;;;16.15;100.00
70546;BME280;58098;51.680;5.134;2023-07-31T07:26:06;100789.19;;;16.23;100.00
70546;BME280;58098;51.680;5.134;2023-07-31T07:28:31;100781.13;;;16.24;100.00
70546;BME280;58098;51.680;5.134;2023-07-31T07:30:57;100787.72;;;16.28;100.00
70546;BME280;58098;51.680;5.134;2023-07-31T07:33:23;100786.06;;;16.27;100.00
70546;BME280;58098;51.680;5.134;2023-07-31T07:35:48;100787.72;;;16.28;100.00
70546;BME280;58098;51.680;5.134;2023-07-31T07:38:14;100769.28;;;16.28;100.00
70546;BME280;58098;51.680;5.134;2023-07-31T07:40:40;100782.47;;;16.36;100.00
70546;BME280;58098;51.680;5.134;2023-07-31T07:43:06;100769.97;;;16.30;100.00
70546;BME280;58098;51.680;5.134;2023-07-31T07:45:31;100780.81;;;16.35;100.00
70546;BME280;58098;51.680;5.134;2023-07-31T07:47:56;100783.97;;;16.39;100.00
70546;BME280;58098;51.680;5.134;2023-07-31T07:50:22;100782.16;;;16.39;100.00
70546;BME280;58098;51.680;5.134;2023-07-31T07:52:48;100775.28;;;16.46;100.00
70546;BME280;58098;51.680;5.134;2023-07-31T07:55:13;100776.91;;;16.39;100.00
70546;BME280;58098;51.680;5.134;2023-07-31T07:57:38;100784.84;;;16.47;100.00
70546;BME280;58098;51.680;5.134;2023-07-31T08:00:04;100779.41;;;16.49;100.00
70546;BME280;58098;51.680;5.134;2023-07-31T08:02:30;100773.47;;;16.47;100.00
70546;BME280;58098;51.680;5.134;2023-07-31T08:04:56;100765.56;;;16.47;100.00
70546;BME280;58098;51.680;5.134;2023-07-31T08:07:21;100770.66;;;16.48;100.00
70546;BME280;58098;51.680;5.134;2023-07-31T08:09:46;100778.94;;;16.54;100.00
70546;BME280;58098;51.680;5.134;2023-07-31T08:12:12;100753.06;;;16.49;100.00
70546;BME280;58098;51.680;5.134;2023-07-31T08:14:37;100751.94;;;16.52;100.00
70546;BME280;58098;51.680;5.134;2023-07-31T08:17:03;100762.16;;;16.55;100.00
70546;BME280;58098;51.680;5.134;2023-07-31T08:19:28;100778.63;;;16.65;100.00
70546;BME280;58098;51.680;5.134;2023-07-31T08:21:53;100778.00;;;16.71;100.00
70546;BME280;58098;51.680;5.134;2023-07-31T08:24:19;100766.47;;;16.64;100.00
70546;BME280;58098;51.680;5.134;2023-07-31T08:26:44;100777.34;;;16.69;100.00
70546;BME280;58098;51.680;5.134;2023-07-31T08:29:09;100772.56;;;16.72;100.00
70546;BME280;58098;51.680;5.134;2023-07-31T08:31:35;100763.16;;;16.70;100.00
70546;BME280;58098;51.680;5.134;2023-07-31T08:34:00;100768.44;;;16.70;100.00
70546;BME280;58098;51.680;5.134;2023-07-31T08:36:26;100759.53;;;16.63;100.00
70546;BME280;58098;51.680;5.134;2023-07-31T08:38:51;100768.91;;;16.65;100.00
70546;BME280;58098;51.680;5.134;2023-07-31T08:41:17;100760.88;;;16.67;100.00
70546;BME280;58098;51.680;5.134;2023-07-31T08:43:44;100768.28;;;16.71;100.00
70546;BME280;58098;51.680;5.134;2023-07-31T08:46:10;100762.19;;;16.71;100.00
70546;BME280;58098;51.680;5.134;2023-07-31T08:48:37;100766.31;;;16.73;100.00
70546;BME280;58098;51.680;5.134;2023-07-31T08:51:03;100764.66;;;16.72;100.00
70546;BME280;58098;51.680;5.134;2023-07-31T08:53:29;100761.41;;;16.86;100.00
70546;BME280;58098;51.680;5.134;2023-07-31T08:55:54;100771.28;;;17.00;100.00
70546;BME280;58098;51.680;5.134;2023-07-31T08:58:22;100751.03;;;17.01;100.00
70546;BME280;58098;51.680;5.134;2023-07-31T09:00:50;100748.38;;;17.09;100.00
70546;BME280;58098;51.680;5.134;2023-07-31T09:03:18;100756.13;;;17.35;100.00
70546;BME280;58098;51.680;5.134;2023-07-31T09:05:45;100753.94;;;17.46;100.00
70546;BME280;58098;51.680;5.134;2023-07-31T09:08:15;100756.41;;;17.48;100.00
70546;BME280;58098;51.680;5.134;2023-07-31T09:10:43;100753.63;;;17.49;100.00
70546;BME280;58098;51.680;5.134;2023-07-31T09:13:09;100749.34;;;17.56;100.00
70546;BME280;58098;51.680;5.134;2023-07-31T09:15:36;100752.97;;;17.63;100.00
70546;BME280;58098;51.680;5.134;2023-07-31T09:18:03;100752.63;;;17.50;100.00
70546;BME280;58098;51.680;5.134;2023-07-31T09:20:28;100760.03;;;17.63;100.00
70546;BME280;58098;51.680;5.134;2023-07-31T09:22:55;100751.94;;;17.64;100.00
70546;BME280;58098;51.680;5.134;2023-07-31T09:25:22;100756.56;;;17.62;100.00
70546;BME280;58098;51.680;5.134;2023-07-31T09:28:03;100754.03;;;17.85;100.00
70546;BME280;58098;51.680;5.134;2023-07-31T09:30:28;100754.44;;;18.13;100.00
70546;BME280;58098;51.680;5.134;2023-07-31T09:33:02;100760.25;;;18.39;100.00
70546;BME280;58098;51.680;5.134;2023-07-31T09:35:33;100742.22;;;18.42;100.00
70546;BME280;58098;51.680;5.134;2023-07-31T09:38:00;100747.47;;;18.59;100.00
70546;BME280;58098;51.680;5.134;2023-07-31T09:42:59;100756.84;;;18.84;100.00
70546;BME280;58098;51.680;5.134;2023-07-31T09:45:25;100763.81;;;19.07;100.00
70546;BME280;58098;51.680;5.134;2023-07-31T09:47:51;100748.91;;;19.06;100.00
70546;BME280;58098;51.680;5.134;2023-07-31T09:50:17;100750.63;;;18.99;100.00
70546;BME280;58098;51.680;5.134;2023-07-31T09:52:42;100746.50;;;18.97;100.00
70546;BME280;58098;51.680;5.134;2023-07-31T09:55:09;100748.03;;;18.91;100.00
70546;BME280;58098;51.680;5.134;2023-07-31T09:57:38;100742.31;;;18.88;100.00
70546;BME280;58098;51.680;5.134;2023-07-31T10:00:05;100746.13;;;18.85;100.00
70546;BME280;58098;51.680;5.134;2023-07-31T10:02:31;100743.53;;;18.77;100.00
70546;BME280;58098;51.680;5.134;2023-07-31T10:04:57;100740.63;;;18.64;100.00
70546;BME280;58098;51.680;5.134;2023-07-31T10:07:25;100752.41;;;18.62;100.00
70546;BME280;58098;51.680;5.134;2023-07-31T10:09:55;100751.19;;;18.64;100.00
70546;BME280;58098;51.680;5.134;2023-07-31T10:12:24;100737.81;;;18.66;100.00
70546;BME280;58098;51.680;5.134;2023-07-31T10:14:52;100747.81;;;18.78;100.00
70546;BME280;58098;51.680;5.134;2023-07-31T10:17:21;100749.09;;;18.82;100.00
70546;BME280;58098;51.680;5.134;2023-07-31T10:19:47;100751.94;;;18.81;100.00
70546;BME280;58098;51.680;5.134;2023-07-31T10:22:14;100765.81;;;18.83;100.00
70546;BME280;58098;51.680;5.134;2023-07-31T10:24:39;100751.81;;;18.74;100.00
70546;BME280;58098;51.680;5.134;2023-07-31T10:27:07;100761.75;;;18.95;100.00
70546;BME280;58098;51.680;5.134;2023-07-31T10:29:32;100743.13;;;18.88;100.00
70546;BME280;58098;51.680;5.134;2023-07-31T10:31:59;100745.00;;;19.02;100.00
70546;BME280;58098;51.680;5.134;2023-07-31T10:34:25;100738.97;;;19.08;100.00
70546;BME280;58098;51.680;5.134;2023-07-31T10:39:55;100764.59;;;19.31;100.00
70546;BME280;58098;51.680;5.134;2023-07-31T10:42:27;100758.00;;;19.27;100.00
70546;BME280;58098;51.680;5.134;2023-07-31T10:44:56;100751.31;;;19.16;100.00
70546;BME280;58098;51.680;5.134;2023-07-31T10:47:22;100762.94;;;19.30;100.00
70546;BME280;58098;51.680;5.134;2023-07-31T10:49:48;100747.84;;;19.16;100.00
70546;BME280;58098;51.680;5.134;2023-07-31T10:52:13;100754.16;;;19.15;100.00
70546;BME280;58098;51.680;5.134;2023-07-31T10:54:44;100753.41;;;19.21;100.00
70546;BME280;58098;51.680;5.134;2023-07-31T10:57:23;100752.78;;;19.41;100.00
70546;BME280;58098;51.680;5.134;2023-07-31T10:59:49;100753.16;;;19.53;100.00
70546;BME280;58098;51.680;5.134;2023-07-31T11:02:25;100724.59;;;19.63;100.00
70546;BME280;58098;51.680;5.134;2023-07-31T11:05:10;100736.38;;;19.75;100.00
70546;BME280;58098;51.680;5.134;2023-07-31T11:07:50;100743.84;;;19.86;100.00
70546;BME280;58098;51.680;5.134;2023-07-31T11:10:17;100737.09;;;19.84;100.00
70546;BME280;58098;51.680;5.134;2023-07-31T11:12:42;100732.91;;;19.74;100.00
70546;BME280;58098;51.680;5.134;2023-07-31T11:15:08;100748.41;;;19.63;100.00
70546;BME280;58098;51.680;5.134;2023-07-31T11:17:38;100751.13;;;19.55;100.00
70546;BME280;58098;51.680;5.134;2023-07-31T11:20:05;100753.16;;;19.53;100.00
70546;BME280;58098;51.680;5.134;2023-07-31T11:22:30;100753.53;;;19.64;100.00
70546;BME280;58098;51.680;5.134;2023-07-31T11:24:56;100750.31;;;19.54;100.00
70546;BME280;58098;51.680;5.134;2023-07-31T11:27:21;100737.53;;;19.43;100.00
70546;BME280;58098;51.680;5.134;2023-07-31T11:29:46;100733.34;;;19.49;100.00
70546;BME280;58098;51.680;5.134;2023-07-31T11:32:16;100738.38;;;19.58;100.00
70546;BME280;58098;51.680;5.134;2023-07-31T11:34:55;100729.53;;;19.66;100.00
70546;BME280;58098;51.680;5.134;2023-07-31T11:37:21;100730.78;;;19.55;100.00
70546;BME280;58098;51.680;5.134;2023-07-31T11:40:01;100713.25;;;19.54;100.00
70546;BME280;58098;51.680;5.134;2023-07-31T11:42:27;100711.53;;;19.47;100.00
70546;BME280;58098;51.680;5.134;2023-07-31T11:44:52;100716.09;;;19.53;100.00
70546;BME280;58098;51.680;5.134;2023-07-31T11:47:18;100708.22;;;19.45;100.00
70546;BME280;58098;51.680;5.134;2023-07-31T11:49:43;100723.41;;;19.28;100.00
70546;BME280;58098;51.680;5.134;2023-07-31T11:52:09;100725.91;;;19.30;100.00
70546;BME280;58098;51.680;5.134;2023-07-31T11:54:35;100731.63;;;19.19;100.00
70546;BME280;58098;51.680;5.134;2023-07-31T11:57:01;100734.94;;;19.35;100.00
70546;BME280;58098;51.680;5.134;2023-07-31T11:59:27;100710.03;;;19.30;100.00
70546;BME280;58098;51.680;5.134;2023-07-31T12:01:53;100724.50;;;19.19;100.00
70546;BME280;58098;51.680;5.134;2023-07-31T12:04:19;100731.81;;;19.17;100.00
70546;BME280;58098;51.680;5.134;2023-07-31T12:06:47;100738.72;;;19.18;100.00
70546;BME280;58098;51.680;5.134;2023-07-31T12:09:14;100745.56;;;19.13;100.00
70546;BME280;58098;51.680;5.134;2023-07-31T12:11:46;100739.81;;;19.09;100.00
70546;BME280;58098;51.680;5.134;2023-07-31T12:14:26;100734.34;;;19.25;100.00
70546;BME280;58098;51.680;5.134;2023-07-31T12:16:58;100699.06;;;19.33;100.00
70546;BME280;58098;51.680;5.134;2023-07-31T12:19:27;100702.22;;;19.51;100.00
70546;BME280;58098;51.680;5.134;2023-07-31T12:21:55;100693.66;;;19.49;100.00
70546;BME280;58098;51.680;5.134;2023-07-31T12:24:21;100701.94;;;19.46;100.00
70546;BME280;58098;51.680;5.134;2023-07-31T12:26:48;100713.66;;;19.29;100.00
70546;BME280;58098;51.680;5.134;2023-07-31T12:29:14;100713.19;;;19.25;100.00
70546;BME280;58098;51.680;5.134;2023-07-31T12:31:43;100722.25;;;19.31;100.00
70546;BME280;58098;51.680;5.134;2023-07-31T12:34:18;100704.00;;;19.36;100.00
70546;BME280;58098;51.680;5.134;2023-07-31T12:36:45;100707.31;;;19.38;100.00
70546;BME280;58098;51.680;5.134;2023-07-31T12:39:12;100686.41;;;19.43;100.00
70546;BME280;58098;51.680;5.134;2023-07-31T12:41:37;100703.03;;;19.51;100.00
70546;BME280;58098;51.680;5.134;2023-07-31T12:44:03;100687.44;;;19.42;100.00